This is the latest recevied weather packets stored in our database for station/object BYNCTR-WX. If no packets are shown the sender has not sent any weather packets the latest 1 day(s).
| Time | Temp. | Humidity | Pressure | Rain* | Wind** | Luminosity | Snow |
|---|---|---|---|---|---|---|---|
| 1778106681 | 10.56° C | 35% | 987.1 hPa | 0 mm | - | - | - |
| 1778105767 | 11.11° C | 35% | 987.1 hPa | 0 mm | - | - | - |
| 1778103086 | 11.67° C | 33% | 987.2 hPa | 0 mm | - | - | - |
| 1778100368 | 11.67° C | 33% | 986.9 hPa | 0 mm | - | - | - |
| 1778099487 | 11.67° C | 34% | 986.5 hPa | 0 mm | - | - | - |
| 1778098572 | 11.67° C | 34% | 986.5 hPa | 0 mm | - | - | - |
| 1778096773 | 11.67° C | 35% | 986.5 hPa | 0 mm | - | - | - |
| 1778094972 | 11.67° C | 35% | 986.5 hPa | 0 mm | - | - | - |
| 1778093171 | 11.67° C | 34% | 986.3 hPa | 0 mm | - | - | - |
| 1778089569 | 11.67° C | 35% | 986.5 hPa | 0 mm | - | - | - |
| 1778082371 | 10.56° C | 42% | 986.9 hPa | 0 mm | - | - | - |
| 1778081485 | 10° C | 43% | 986.1 hPa | 0 mm | - | - | - |
| 1778078772 | 9.44° C | 52% | 986.4 hPa | 0 mm | - | - | - |
| 1778076972 | 8.33° C | 52% | 986.4 hPa | 0 mm | - | - | - |
| 1778071572 | 5.56° C | 71% | 984.1 hPa | 0 mm | - | - | - |
| 1778064368 | 2.22° C | 70% | 983.2 hPa | 0 mm | - | - | - |
| 1778061709 | 2.22° C | 71% | 983.6 hPa | 0 mm | - | - | - |
| 1778058968 | 2.78° C | 62% | 982.9 hPa | 0 mm | - | - | - |
| 1778057169 | 3.33° C | 62% | 982.4 hPa | 0 mm | - | - | - |
| 1778056283 | 3.33° C | 65% | 982.9 hPa | 0 mm | - | - | - |
| 1778055368 | 3.33° C | 65% | 982.9 hPa | 0 mm | - | - | - |
| 1778052687 | 3.89° C | 64% | 982.6 hPa | 0 mm | - | - | - |
| 1778051768 | 3.89° C | 64% | 982.6 hPa | 0 mm | - | - | - |
| 1778050898 | 4.44° C | 64% | 982.6 hPa | 0 mm | - | - | - |
| 1778049968 | 4.44° C | 69% | 983.1 hPa | 0 mm | - | - | - |
* Rain latest hour (hover to see other rain measurements)
** Current wind speed in m/s (hover to see current wind gust speed)